createdAt,value
2022-12-25T00:00:57.812Z,8.82
2022-12-25T00:04:17.707Z,10.63
2022-12-25T00:07:25.067Z,9.70
2022-12-25T00:10:45.014Z,6.93
2022-12-25T00:13:53.171Z,6.68
2022-12-25T00:17:13.543Z,11.68
2022-12-25T00:20:29.958Z,10.60
2022-12-25T00:23:44.330Z,10.10
2022-12-25T00:26:59.822Z,7.03
2022-12-25T00:30:22.515Z,9.05
2022-12-25T00:33:35.147Z,7.82
2022-12-25T00:36:41.864Z,8.80
2022-12-25T00:39:52.460Z,8.53
2022-12-25T00:42:59.231Z,12.45
2022-12-25T00:46:05.015Z,8.93
2022-12-25T00:49:18.526Z,8.90
2022-12-25T00:52:41.785Z,9.33
2022-12-25T00:56:01.675Z,10.43
2022-12-25T00:59:23.568Z,8.75
2022-12-25T01:02:45.673Z,12.30
2022-12-25T01:06:00.823Z,9.15
2022-12-25T01:09:50.523Z,14.43
2022-12-25T01:12:54.015Z,12.20
2022-12-25T01:16:16.460Z,10.30
2022-12-25T01:19:37.564Z,12.05
2022-12-25T01:22:59.567Z,13.43
2022-12-25T01:26:24.707Z,10.27
2022-12-25T01:29:27.814Z,14.60
2022-12-25T01:32:30.886Z,14.75
2022-12-25T01:35:41.354Z,12.63
2022-12-25T01:38:45.263Z,12.82
2022-12-25T01:41:49.427Z,14.10
2022-12-25T01:45:36.019Z,12.57
2022-12-25T01:48:51.801Z,13.55
2022-12-25T01:52:23.884Z,11.60
2022-12-25T01:55:48.448Z,11.43
2022-12-25T01:59:15.215Z,9.97
2022-12-25T02:02:38.241Z,10.87
2022-12-25T02:05:54.665Z,11.88
2022-12-25T02:09:10.412Z,13.55
2022-12-25T02:12:46.062Z,11.57
2022-12-25T02:16:14.403Z,11.57
2022-12-25T02:19:53.943Z,11.40
2022-12-25T02:23:28.610Z,13.48
2022-12-25T02:26:55.908Z,14.52
2022-12-25T02:30:10.387Z,10.98
2022-12-25T02:33:45.886Z,12.40
2022-12-25T02:36:55.736Z,11.20
2022-12-25T02:40:07.932Z,11.23
2022-12-25T02:43:37.231Z,12.13
2022-12-25T02:47:04.295Z,9.77
2022-12-25T02:50:35.056Z,12.30
2022-12-25T02:54:06.267Z,10.87
2022-12-25T02:57:50.318Z,10.60
2022-12-25T03:01:38.810Z,12.75
2022-12-25T03:05:18.346Z,9.50
2022-12-25T03:08:34.961Z,11.23
2022-12-25T03:11:48.666Z,11.27
2022-12-25T03:15:23.232Z,10.55
2022-12-25T03:18:34.297Z,9.68
2022-12-25T03:22:10.178Z,10.55
2022-12-25T03:25:37.683Z,8.50
2022-12-25T03:28:40.586Z,11.10
2022-12-25T03:32:03.336Z,12.27
2022-12-25T03:35:29.374Z,9.55
2022-12-25T03:39:09.524Z,11.50
2022-12-25T03:42:40.622Z,8.83
2022-12-25T03:46:09.213Z,12.27
2022-12-25T03:49:55.910Z,11.40
2022-12-25T03:53:30.360Z,9.57
2022-12-25T03:56:54.191Z,10.57
2022-12-25T04:00:21.411Z,10.57
2022-12-25T04:03:47.128Z,11.40
2022-12-25T04:07:12.756Z,10.20
2022-12-25T04:10:35.017Z,10.38
2022-12-25T04:14:15.315Z,9.77
2022-12-25T04:17:47.114Z,13.97
2022-12-25T04:21:12.234Z,9.70
2022-12-25T04:24:37.456Z,10.45
2022-12-25T04:28:02.611Z,9.68
2022-12-25T04:31:31.971Z,10.57
2022-12-25T04:34:54.118Z,12.53
2022-12-25T04:37:57.770Z,7.70
2022-12-25T04:41:05.355Z,10.98
2022-12-25T04:44:18.408Z,10.70
2022-12-25T04:47:25.572Z,11.25
2022-12-25T04:50:29.339Z,12.00
2022-12-25T04:53:52.027Z,12.53
2022-12-25T04:57:13.763Z,12.45
2022-12-25T05:00:35.749Z,12.13
2022-12-25T05:03:44.843Z,11.93
2022-12-25T05:07:01.022Z,10.93
2022-12-25T05:10:37.000Z,12.43
2022-12-25T05:14:05.020Z,12.48
2022-12-25T05:17:29.784Z,10.43
2022-12-25T05:20:51.967Z,16.88
2022-12-25T05:24:01.860Z,12.20
2022-12-25T05:27:11.616Z,16.07
2022-12-25T05:30:21.528Z,17.98
2022-12-25T05:33:31.458Z,17.10
2022-12-25T05:36:47.185Z,14.95
2022-12-25T05:40:16.889Z,13.10
2022-12-25T05:43:39.506Z,15.57
2022-12-25T05:46:56.352Z,15.00
2022-12-25T05:50:12.032Z,12.52
2022-12-25T05:53:40.933Z,14.95
2022-12-25T05:57:07.488Z,13.73
2022-12-25T06:00:23.965Z,14.47
2022-12-25T06:03:43.844Z,15.13
2022-12-25T06:07:00.114Z,18.20
2022-12-25T06:10:28.106Z,14.35
2022-12-25T06:14:04.362Z,14.33
2022-12-25T06:17:24.389Z,15.53
2022-12-25T06:20:44.491Z,13.57
2022-12-25T06:23:53.318Z,14.60
2022-12-25T06:27:08.935Z,13.18
2022-12-25T06:30:37.769Z,13.13
2022-12-25T06:34:12.940Z,13.87
2022-12-25T06:37:22.407Z,13.40
2022-12-25T06:40:44.817Z,11.35
2022-12-25T06:43:54.422Z,15.73
2022-12-25T06:47:04.242Z,15.73
2022-12-25T06:50:11.240Z,14.13
2022-12-25T06:53:18.248Z,16.30
2022-12-25T06:56:24.994Z,17.27
2022-12-25T06:59:31.834Z,18.67
2022-12-25T07:02:54.697Z,19.07
2022-12-25T07:06:04.409Z,16.63
2022-12-25T07:09:20.691Z,16.80
2022-12-25T07:12:50.838Z,16.08
2022-12-25T07:16:18.789Z,19.42
2022-12-25T07:19:44.608Z,21.00
2022-12-25T07:23:01.751Z,21.23
2022-12-25T07:26:18.474Z,20.67
2022-12-25T07:29:22.572Z,21.70
2022-12-25T07:32:25.471Z,21.33
2022-12-25T07:35:32.201Z,19.33
2022-12-25T07:41:43.851Z,22.08
2022-12-25T07:45:03.754Z,21.27
2022-12-25T07:48:24.652Z,21.58
2022-12-25T07:51:38.807Z,20.60
2022-12-25T07:55:06.681Z,20.13
2022-12-25T07:58:33.626Z,21.67
2022-12-25T08:01:56.783Z,19.65
2022-12-25T08:05:13.713Z,19.98
2022-12-25T08:08:34.588Z,19.57
2022-12-25T08:11:55.629Z,19.27
2022-12-25T08:15:18.580Z,20.27
2022-12-25T08:18:48.590Z,21.20
2022-12-25T08:22:08.521Z,22.98
2022-12-25T08:25:28.577Z,19.13
2022-12-25T08:28:32.487Z,22.20
2022-12-25T08:31:46.477Z,21.10
2022-12-25T08:34:50.982Z,22.67
2022-12-25T08:38:00.040Z,29.05
2022-12-25T08:41:12.964Z,25.10
2022-12-25T08:44:22.757Z,25.60
2022-12-25T08:47:29.067Z,28.52
2022-12-25T08:50:41.619Z,27.65
2022-12-25T08:53:59.422Z,33.20
2022-12-25T08:57:23.500Z,35.10
2022-12-25T09:00:43.391Z,28.67
2022-12-25T09:03:50.700Z,28.35
2022-12-25T09:06:54.642Z,33.83
2022-12-25T09:10:04.095Z,31.20
2022-12-25T09:13:27.416Z,30.57
2022-12-25T09:16:57.469Z,32.53
2022-12-25T09:20:17.339Z,32.30
2022-12-25T09:23:37.532Z,30.85
2022-12-25T09:26:53.914Z,31.60
2022-12-25T09:30:16.327Z,31.83
2022-12-25T09:33:50.387Z,31.77
2022-12-25T09:37:15.156Z,77.97
2022-12-25T09:40:40.100Z,27.15
2022-12-25T09:44:00.393Z,20.83
2022-12-25T09:47:25.197Z,24.40
2022-12-25T09:50:56.336Z,17.60
2022-12-25T09:54:26.474Z,16.27
2022-12-25T09:57:33.654Z,16.20
2022-12-25T10:00:58.191Z,19.42
2022-12-25T10:04:40.948Z,16.43
2022-12-25T10:08:03.735Z,14.43
2022-12-25T10:11:25.060Z,17.92
2022-12-25T10:14:58.700Z,14.02
2022-12-25T10:18:30.971Z,11.80
2022-12-25T10:21:48.265Z,11.57
2022-12-25T10:25:13.509Z,13.53
2022-12-25T10:28:45.887Z,13.18
2022-12-25T10:32:06.778Z,13.75
2022-12-25T10:35:31.854Z,13.50
2022-12-25T10:38:52.880Z,14.17
2022-12-25T10:42:41.149Z,12.30
2022-12-25T10:45:49.930Z,15.50
2022-12-25T10:49:00.563Z,15.35
2022-12-25T10:52:22.065Z,18.42
2022-12-25T10:55:39.117Z,13.37
2022-12-25T10:59:06.057Z,15.37
2022-12-25T11:02:34.995Z,17.85
2022-12-25T11:05:38.254Z,18.15
2022-12-25T11:09:02.160Z,17.00
2022-12-25T11:12:27.166Z,20.73
2022-12-25T11:16:03.851Z,16.87
2022-12-25T11:19:30.985Z,21.40
2022-12-25T11:22:48.093Z,17.63
2022-12-25T11:26:07.877Z,17.60
2022-12-25T11:29:36.806Z,18.53
2022-12-25T11:32:55.648Z,15.00
2022-12-25T11:36:14.856Z,15.18
2022-12-25T11:39:38.109Z,11.80
2022-12-25T11:43:07.671Z,12.35
2022-12-25T11:46:31.868Z,13.47
2022-12-25T11:49:58.605Z,15.17
2022-12-25T11:53:19.019Z,16.20
2022-12-25T11:56:29.271Z,15.82
2022-12-25T11:59:57.238Z,15.80
2022-12-25T12:03:21.367Z,13.30
2022-12-25T12:06:51.372Z,16.33
2022-12-25T12:10:06.628Z,14.65
2022-12-25T12:13:44.255Z,14.10
2022-12-25T12:16:52.517Z,13.07
2022-12-25T12:20:38.351Z,14.10
2022-12-25T12:24:18.232Z,18.27
2022-12-25T12:27:40.382Z,15.48
2022-12-25T12:31:29.989Z,15.35
2022-12-25T12:35:05.843Z,11.50
2022-12-25T12:38:34.021Z,7.77
2022-12-25T12:41:53.950Z,9.57
2022-12-25T12:45:18.892Z,7.53
2022-12-25T12:48:40.970Z,6.68
2022-12-25T12:52:06.025Z,3.95
2022-12-25T12:55:29.047Z,5.70
2022-12-25T12:58:53.851Z,7.83
2022-12-25T13:02:31.109Z,10.23
2022-12-25T13:06:00.294Z,9.55
2022-12-25T13:09:34.686Z,9.93
2022-12-25T13:12:38.534Z,9.27
2022-12-25T13:15:47.876Z,8.47
2022-12-25T13:19:05.223Z,8.90
2022-12-25T13:22:39.040Z,7.63
2022-12-25T13:25:53.392Z,9.80
2022-12-25T13:29:01.984Z,9.63
2022-12-25T13:32:27.869Z,7.70
2022-12-25T13:35:46.879Z,9.77
2022-12-25T13:39:02.898Z,8.20
2022-12-25T13:42:15.604Z,11.38
2022-12-25T13:45:23.942Z,11.47
2022-12-25T13:48:37.557Z,9.07
2022-12-25T13:51:48.445Z,8.57
2022-12-25T13:55:12.679Z,12.10
2022-12-25T13:58:42.466Z,11.02
2022-12-25T14:01:47.519Z,11.53
2022-12-25T14:04:56.927Z,10.73
2022-12-25T14:08:17.311Z,10.52
2022-12-25T14:11:25.455Z,10.35
2022-12-25T14:14:44.181Z,12.05
2022-12-25T14:17:48.510Z,12.00
2022-12-25T14:21:16.806Z,13.70
2022-12-25T14:24:26.998Z,12.68
2022-12-25T14:27:33.115Z,20.83
2022-12-25T14:30:47.499Z,13.60
2022-12-25T14:34:07.652Z,13.83
2022-12-25T14:37:32.571Z,14.93
2022-12-25T14:40:48.675Z,13.43
2022-12-25T14:44:14.746Z,14.63
2022-12-25T14:47:28.749Z,15.18
2022-12-25T14:50:56.513Z,14.00
2022-12-25T14:54:22.793Z,13.97
2022-12-25T14:57:38.600Z,17.70
2022-12-25T15:01:01.782Z,13.98
2022-12-25T15:04:25.694Z,15.65
2022-12-25T15:07:47.645Z,18.83
2022-12-25T15:11:11.548Z,17.07
2022-12-25T15:14:26.618Z,16.15
2022-12-25T15:17:50.496Z,16.55
2022-12-25T15:21:14.490Z,15.65
2022-12-25T15:24:24.531Z,19.03
2022-12-25T15:27:42.063Z,19.13
2022-12-25T15:31:10.538Z,22.90
2022-12-25T15:34:21.598Z,25.17
2022-12-25T15:37:25.551Z,24.58
2022-12-25T15:40:28.634Z,21.17
2022-12-25T15:43:41.381Z,19.27
2022-12-25T15:46:46.132Z,23.20
2022-12-25T15:49:52.943Z,18.48
2022-12-25T15:53:05.874Z,20.30
2022-12-25T15:56:11.685Z,21.40
2022-12-25T15:59:20.987Z,22.83
2022-12-25T16:02:42.207Z,21.13
2022-12-25T16:06:05.364Z,21.42
2022-12-25T16:09:33.226Z,24.05
2022-12-25T16:12:48.304Z,21.57
2022-12-25T16:16:04.449Z,22.43
2022-12-25T16:19:34.324Z,18.67
2022-12-25T16:22:55.168Z,20.75
2022-12-25T16:26:18.292Z,19.50
2022-12-25T16:29:42.284Z,22.47
2022-12-25T16:33:04.355Z,24.47
2022-12-25T16:36:27.188Z,21.17
2022-12-25T16:39:43.408Z,18.98
2022-12-25T16:43:03.292Z,19.70
2022-12-25T16:46:33.237Z,20.40
2022-12-25T16:49:49.284Z,18.73
2022-12-25T16:53:12.579Z,19.88
2022-12-25T16:56:35.300Z,16.95
2022-12-25T17:00:02.259Z,18.08
2022-12-25T17:03:26.466Z,18.57
2022-12-25T17:06:46.337Z,19.60
2022-12-25T17:10:04.218Z,20.60
2022-12-25T17:13:34.204Z,20.67
2022-12-25T17:16:55.256Z,21.27
2022-12-25T17:20:12.374Z,21.63
2022-12-25T17:23:35.191Z,16.63
2022-12-25T17:26:49.262Z,19.65
2022-12-25T17:29:54.214Z,17.50
2022-12-25T17:32:58.322Z,19.70
2022-12-25T17:36:12.049Z,23.80
2022-12-25T17:39:35.095Z,23.37
2022-12-25T17:42:56.136Z,21.00
2022-12-25T17:46:13.398Z,19.10
2022-12-25T17:49:42.118Z,19.90
2022-12-25T17:52:57.029Z,18.03
2022-12-25T17:56:01.014Z,18.37
2022-12-25T17:59:30.024Z,19.65
2022-12-25T18:02:43.905Z,19.30
2022-12-25T18:05:54.535Z,17.60
2022-12-25T18:09:00.586Z,16.90
2022-12-25T18:12:04.450Z,21.07
2022-12-25T18:15:08.932Z,18.30
2022-12-25T18:18:29.751Z,17.45
2022-12-25T18:21:39.901Z,19.33
2022-12-25T18:24:56.142Z,22.00
2022-12-25T18:28:25.049Z,21.47
2022-12-25T18:31:58.995Z,23.52
2022-12-25T18:35:21.981Z,20.95
2022-12-25T18:38:43.947Z,20.55
2022-12-25T18:42:19.989Z,19.20
2022-12-25T18:45:31.037Z,23.60
2022-12-25T18:48:51.805Z,22.85
2022-12-25T18:52:47.536Z,18.85
2022-12-25T18:55:41.000Z,20.23
2022-12-25T18:58:57.931Z,19.70
2022-12-25T19:02:22.074Z,19.90
2022-12-25T19:05:45.078Z,24.00
2022-12-25T19:09:09.845Z,25.48
2022-12-25T19:12:27.901Z,22.38
2022-12-25T19:15:53.924Z,21.40
2022-12-25T19:19:15.863Z,22.97
2022-12-25T19:22:39.036Z,22.42
2022-12-25T19:25:56.060Z,23.10
2022-12-25T19:29:13.963Z,20.60
2022-12-25T19:32:37.114Z,20.27
2022-12-25T19:36:01.922Z,21.33
2022-12-25T19:39:25.104Z,20.30
2022-12-25T19:42:48.825Z,20.85
2022-12-25T19:46:09.996Z,21.83
2022-12-25T19:49:29.918Z,24.97
2022-12-25T19:52:49.850Z,25.40
2022-12-25T19:56:12.943Z,26.45
2022-12-25T19:59:16.341Z,28.70
2022-12-25T20:02:20.321Z,24.45
2022-12-25T20:05:40.577Z,18.30
2022-12-25T20:09:04.508Z,19.73
2022-12-25T20:12:20.951Z,18.92
2022-12-25T20:15:40.746Z,19.35
2022-12-25T20:19:07.779Z,22.02
2022-12-25T20:22:29.601Z,20.70
2022-12-25T20:25:52.601Z,20.80
2022-12-25T20:29:14.592Z,21.33
2022-12-25T20:32:36.565Z,22.77
2022-12-25T20:35:45.980Z,24.50
2022-12-25T20:38:49.669Z,24.53
2022-12-25T20:41:53.392Z,21.43
2022-12-25T20:44:56.141Z,21.48
2022-12-25T20:48:00.432Z,21.10
2022-12-25T20:51:21.863Z,20.13
2022-12-25T20:54:35.485Z,23.60
2022-12-25T20:57:53.535Z,22.50
2022-12-25T21:01:19.643Z,20.80
2022-12-25T21:04:40.615Z,22.70
2022-12-25T21:08:02.622Z,22.73
2022-12-25T21:11:24.656Z,21.97
2022-12-25T21:14:47.598Z,21.43
2022-12-25T21:18:11.461Z,24.23
2022-12-25T21:21:33.543Z,22.90
2022-12-25T21:24:56.628Z,20.50
2022-12-25T21:27:59.969Z,21.37
2022-12-25T21:31:08.347Z,22.93
2022-12-25T21:34:15.582Z,23.05
2022-12-25T21:37:32.116Z,26.23
2022-12-25T21:40:54.516Z,23.58
2022-12-25T21:44:20.087Z,22.50
2022-12-25T21:48:01.881Z,23.80
2022-12-25T21:51:36.833Z,23.35
2022-12-25T21:54:40.730Z,20.88
2022-12-25T21:57:48.487Z,24.35
2022-12-25T22:01:09.680Z,21.33
2022-12-25T22:04:28.699Z,23.23
2022-12-25T22:07:49.956Z,24.95
2022-12-25T22:11:37.074Z,24.02
2022-12-25T22:14:54.883Z,25.55
2022-12-25T22:18:22.141Z,23.20
2022-12-25T22:21:26.543Z,22.83
2022-12-25T22:24:29.352Z,22.98
2022-12-25T22:27:33.989Z,25.73
2022-12-25T22:30:42.168Z,21.35
2022-12-25T22:33:55.922Z,22.27
2022-12-25T22:37:08.595Z,29.00
2022-12-25T22:40:17.584Z,24.70
2022-12-25T22:43:43.308Z,23.48
2022-12-25T22:46:48.773Z,21.15
2022-12-25T22:50:06.171Z,22.63
2022-12-25T22:53:28.170Z,21.77
2022-12-25T22:56:44.616Z,19.48
2022-12-25T22:59:54.106Z,25.52
2022-12-25T23:03:04.903Z,21.60
2022-12-25T23:06:14.725Z,20.83
2022-12-25T23:09:31.557Z,21.33
2022-12-25T23:12:57.892Z,21.23
2022-12-25T23:16:13.565Z,21.17
2022-12-25T23:19:39.506Z,21.58
2022-12-25T23:23:14.730Z,23.83
2022-12-25T23:26:23.864Z,20.13
2022-12-25T23:29:46.298Z,21.15
2022-12-25T23:32:49.941Z,21.88
2022-12-25T23:35:54.631Z,20.23
2022-12-25T23:39:01.737Z,21.40
2022-12-25T23:42:22.511Z,21.53
2022-12-25T23:45:25.452Z,22.50
2022-12-25T23:48:29.539Z,20.67
2022-12-25T23:51:43.873Z,20.58
2022-12-25T23:54:59.296Z,22.17
2022-12-25T23:58:15.295Z,23.30
